sensor_id;sensor_type;location;lat;lon;timestamp;P1;durP1;ratioP1;P2;durP2;ratioP2
8331;SDS011;4203;48.144;14.118;2022-12-18T00:00:00;87.73;;;37.80;;
8331;SDS011;4203;48.144;14.118;2022-12-18T00:02:27;92.30;;;37.73;;
8331;SDS011;4203;48.144;14.118;2022-12-18T00:04:54;105.53;;;42.07;;
8331;SDS011;4203;48.144;14.118;2022-12-18T00:07:24;109.57;;;42.70;;
8331;SDS011;4203;48.144;14.118;2022-12-18T00:09:51;111.40;;;43.57;;
8331;SDS011;4203;48.144;14.118;2022-12-18T00:12:18;101.43;;;42.10;;
8331;SDS011;4203;48.144;14.118;2022-12-18T00:14:45;110.80;;;41.93;;
8331;SDS011;4203;48.144;14.118;2022-12-18T00:17:14;111.50;;;44.90;;
8331;SDS011;4203;48.144;14.118;2022-12-18T00:19:41;102.40;;;44.00;;
8331;SDS011;4203;48.144;14.118;2022-12-18T00:22:08;93.23;;;40.60;;
8331;SDS011;4203;48.144;14.118;2022-12-18T00:24:35;106.50;;;41.90;;
8331;SDS011;4203;48.144;14.118;2022-12-18T00:27:02;99.63;;;38.93;;
8331;SDS011;4203;48.144;14.118;2022-12-18T00:29:30;101.37;;;41.37;;
8331;SDS011;4203;48.144;14.118;2022-12-18T00:31:57;107.70;;;41.87;;
8331;SDS011;4203;48.144;14.118;2022-12-18T00:34:25;96.57;;;40.40;;
8331;SDS011;4203;48.144;14.118;2022-12-18T00:36:53;99.30;;;41.23;;
8331;SDS011;4203;48.144;14.118;2022-12-18T00:39:20;92.87;;;39.20;;
8331;SDS011;4203;48.144;14.118;2022-12-18T00:41:47;92.33;;;40.93;;
8331;SDS011;4203;48.144;14.118;2022-12-18T00:44:31;85.83;;;38.27;;
8331;SDS011;4203;48.144;14.118;2022-12-18T00:46:58;93.67;;;38.93;;
8331;SDS011;4203;48.144;14.118;2022-12-18T00:49:27;88.43;;;39.90;;
8331;SDS011;4203;48.144;14.118;2022-12-18T00:51:54;84.77;;;36.80;;
8331;SDS011;4203;48.144;14.118;2022-12-18T00:54:21;85.17;;;37.10;;
8331;SDS011;4203;48.144;14.118;2022-12-18T00:56:48;83.93;;;37.90;;
8331;SDS011;4203;48.144;14.118;2022-12-18T00:59:15;76.33;;;34.83;;
8331;SDS011;4203;48.144;14.118;2022-12-18T01:01:44;85.87;;;37.10;;
8331;SDS011;4203;48.144;14.118;2022-12-18T01:04:11;80.83;;;37.27;;
8331;SDS011;4203;48.144;14.118;2022-12-18T01:06:40;76.73;;;35.77;;
8331;SDS011;4203;48.144;14.118;2022-12-18T01:09:07;78.70;;;37.57;;
8331;SDS011;4203;48.144;14.118;2022-12-18T01:11:34;86.43;;;36.03;;
8331;SDS011;4203;48.144;14.118;2022-12-18T01:14:01;79.63;;;35.57;;
8331;SDS011;4203;48.144;14.118;2022-12-18T01:16:29;71.17;;;34.03;;
8331;SDS011;4203;48.144;14.118;2022-12-18T01:18:56;90.27;;;38.40;;
8331;SDS011;4203;48.144;14.118;2022-12-18T01:21:23;85.97;;;35.97;;
8331;SDS011;4203;48.144;14.118;2022-12-18T01:23:52;99.93;;;38.23;;
8331;SDS011;4203;48.144;14.118;2022-12-18T01:26:20;93.03;;;38.80;;
8331;SDS011;4203;48.144;14.118;2022-12-18T01:28:47;85.77;;;37.17;;
8331;SDS011;4203;48.144;14.118;2022-12-18T01:31:16;88.47;;;36.70;;
8331;SDS011;4203;48.144;14.118;2022-12-18T01:33:45;89.53;;;36.73;;
8331;SDS011;4203;48.144;14.118;2022-12-18T01:36:16;91.43;;;38.43;;
8331;SDS011;4203;48.144;14.118;2022-12-18T01:38:46;84.47;;;36.33;;
8331;SDS011;4203;48.144;14.118;2022-12-18T01:41:15;82.50;;;35.67;;
8331;SDS011;4203;48.144;14.118;2022-12-18T01:43:51;93.43;;;36.07;;
8331;SDS011;4203;48.144;14.118;2022-12-18T01:46:20;83.87;;;36.50;;
8331;SDS011;4203;48.144;14.118;2022-12-18T01:48:49;92.53;;;36.37;;
8331;SDS011;4203;48.144;14.118;2022-12-18T01:51:17;89.37;;;36.97;;
8331;SDS011;4203;48.144;14.118;2022-12-18T01:53:45;92.37;;;38.07;;
8331;SDS011;4203;48.144;14.118;2022-12-18T01:56:15;83.97;;;37.87;;
8331;SDS011;4203;48.144;14.118;2022-12-18T01:58:46;92.17;;;38.37;;
8331;SDS011;4203;48.144;14.118;2022-12-18T02:01:20;82.00;;;35.60;;
8331;SDS011;4203;48.144;14.118;2022-12-18T02:03:48;82.73;;;33.87;;
8331;SDS011;4203;48.144;14.118;2022-12-18T02:06:17;87.30;;;37.90;;
8331;SDS011;4203;48.144;14.118;2022-12-18T02:08:53;86.43;;;38.87;;
8331;SDS011;4203;48.144;14.118;2022-12-18T02:11:32;77.40;;;36.67;;
8331;SDS011;4203;48.144;14.118;2022-12-18T02:14:10;90.80;;;39.67;;
8331;SDS011;4203;48.144;14.118;2022-12-18T02:16:50;83.93;;;36.97;;
8331;SDS011;4203;48.144;14.118;2022-12-18T02:19:28;88.83;;;38.27;;
8331;SDS011;4203;48.144;14.118;2022-12-18T02:22:11;81.80;;;35.13;;
8331;SDS011;4203;48.144;14.118;2022-12-18T02:24:52;93.30;;;38.03;;
8331;SDS011;4203;48.144;14.118;2022-12-18T02:27:30;87.73;;;36.77;;
8331;SDS011;4203;48.144;14.118;2022-12-18T02:30:00;76.30;;;36.53;;
8331;SDS011;4203;48.144;14.118;2022-12-18T02:32:30;87.87;;;36.57;;
8331;SDS011;4203;48.144;14.118;2022-12-18T02:35:02;94.50;;;36.50;;
8331;SDS011;4203;48.144;14.118;2022-12-18T02:37:32;102.63;;;35.27;;
8331;SDS011;4203;48.144;14.118;2022-12-18T02:40:01;86.10;;;32.03;;
8331;SDS011;4203;48.144;14.118;2022-12-18T02:42:32;85.07;;;33.07;;
8331;SDS011;4203;48.144;14.118;2022-12-18T02:44:59;80.93;;;32.80;;
8331;SDS011;4203;48.144;14.118;2022-12-18T02:47:27;91.63;;;31.80;;
8331;SDS011;4203;48.144;14.118;2022-12-18T02:50:00;106.20;;;33.63;;
8331;SDS011;4203;48.144;14.118;2022-12-18T02:52:34;139.17;;;34.80;;
8331;SDS011;4203;48.144;14.118;2022-12-18T02:55:10;85.03;;;32.63;;
8331;SDS011;4203;48.144;14.118;2022-12-18T02:57:48;121.80;;;32.90;;
8331;SDS011;4203;48.144;14.118;2022-12-18T03:00:21;118.30;;;34.27;;
8331;SDS011;4203;48.144;14.118;2022-12-18T03:02:53;103.33;;;31.97;;
8331;SDS011;4203;48.144;14.118;2022-12-18T03:05:24;117.27;;;33.53;;
8331;SDS011;4203;48.144;14.118;2022-12-18T03:07:58;102.13;;;32.60;;
8331;SDS011;4203;48.144;14.118;2022-12-18T03:10:30;98.90;;;32.83;;
8331;SDS011;4203;48.144;14.118;2022-12-18T03:13:02;93.87;;;29.17;;
8331;SDS011;4203;48.144;14.118;2022-12-18T03:15:34;94.93;;;32.83;;
8331;SDS011;4203;48.144;14.118;2022-12-18T03:18:04;85.47;;;30.87;;
8331;SDS011;4203;48.144;14.118;2022-12-18T03:20:34;107.80;;;32.47;;
8331;SDS011;4203;48.144;14.118;2022-12-18T03:23:07;103.07;;;30.87;;
8331;SDS011;4203;48.144;14.118;2022-12-18T03:25:39;71.07;;;30.30;;
8331;SDS011;4203;48.144;14.118;2022-12-18T03:28:12;124.37;;;34.30;;
8331;SDS011;4203;48.144;14.118;2022-12-18T03:30:41;102.67;;;33.53;;
8331;SDS011;4203;48.144;14.118;2022-12-18T03:33:12;86.03;;;31.77;;
8331;SDS011;4203;48.144;14.118;2022-12-18T03:35:44;71.90;;;30.53;;
8331;SDS011;4203;48.144;14.118;2022-12-18T03:38:12;83.27;;;31.37;;
8331;SDS011;4203;48.144;14.118;2022-12-18T03:40:43;77.83;;;30.50;;
8331;SDS011;4203;48.144;14.118;2022-12-18T03:43:20;95.13;;;33.00;;
8331;SDS011;4203;48.144;14.118;2022-12-18T03:45:59;114.80;;;31.93;;
8331;SDS011;4203;48.144;14.118;2022-12-18T03:48:31;125.80;;;32.80;;
8331;SDS011;4203;48.144;14.118;2022-12-18T03:51:05;100.53;;;32.83;;
8331;SDS011;4203;48.144;14.118;2022-12-18T03:53:36;82.60;;;32.20;;
8331;SDS011;4203;48.144;14.118;2022-12-18T03:56:09;98.40;;;33.27;;
8331;SDS011;4203;48.144;14.118;2022-12-18T03:58:39;88.73;;;32.97;;
8331;SDS011;4203;48.144;14.118;2022-12-18T04:01:08;90.40;;;33.77;;
8331;SDS011;4203;48.144;14.118;2022-12-18T04:03:39;124.00;;;33.60;;
8331;SDS011;4203;48.144;14.118;2022-12-18T04:06:09;84.20;;;32.97;;
8331;SDS011;4203;48.144;14.118;2022-12-18T04:08:37;89.77;;;32.57;;
8331;SDS011;4203;48.144;14.118;2022-12-18T04:11:05;79.67;;;33.43;;
8331;SDS011;4203;48.144;14.118;2022-12-18T04:13:34;103.67;;;34.33;;
8331;SDS011;4203;48.144;14.118;2022-12-18T04:16:04;109.93;;;34.73;;
8331;SDS011;4203;48.144;14.118;2022-12-18T04:18:32;95.47;;;34.47;;
8331;SDS011;4203;48.144;14.118;2022-12-18T04:20:59;96.60;;;33.37;;
8331;SDS011;4203;48.144;14.118;2022-12-18T04:23:26;98.83;;;34.73;;
8331;SDS011;4203;48.144;14.118;2022-12-18T04:25:54;84.33;;;33.93;;
8331;SDS011;4203;48.144;14.118;2022-12-18T04:28:21;109.60;;;35.37;;
8331;SDS011;4203;48.144;14.118;2022-12-18T04:30:48;85.43;;;35.07;;
8331;SDS011;4203;48.144;14.118;2022-12-18T04:33:17;79.70;;;33.07;;
8331;SDS011;4203;48.144;14.118;2022-12-18T04:35:45;99.10;;;33.93;;
8331;SDS011;4203;48.144;14.118;2022-12-18T04:38:12;86.70;;;33.00;;
8331;SDS011;4203;48.144;14.118;2022-12-18T04:40:39;93.20;;;35.03;;
8331;SDS011;4203;48.144;14.118;2022-12-18T04:43:07;99.00;;;35.17;;
8331;SDS011;4203;48.144;14.118;2022-12-18T04:45:34;89.57;;;33.80;;
8331;SDS011;4203;48.144;14.118;2022-12-18T04:48:02;105.00;;;36.27;;
8331;SDS011;4203;48.144;14.118;2022-12-18T04:50:31;81.23;;;34.90;;
8331;SDS011;4203;48.144;14.118;2022-12-18T04:52:58;83.37;;;32.27;;
8331;SDS011;4203;48.144;14.118;2022-12-18T04:55:25;85.10;;;34.50;;
8331;SDS011;4203;48.144;14.118;2022-12-18T04:57:53;84.50;;;32.63;;
8331;SDS011;4203;48.144;14.118;2022-12-18T05:00:20;93.50;;;32.47;;
8331;SDS011;4203;48.144;14.118;2022-12-18T05:02:48;70.63;;;31.33;;
8331;SDS011;4203;48.144;14.118;2022-12-18T05:05:15;90.47;;;33.13;;
8331;SDS011;4203;48.144;14.118;2022-12-18T05:07:44;92.00;;;30.73;;
8331;SDS011;4203;48.144;14.118;2022-12-18T05:10:11;96.53;;;34.73;;
8331;SDS011;4203;48.144;14.118;2022-12-18T05:12:38;85.87;;;33.03;;
8331;SDS011;4203;48.144;14.118;2022-12-18T05:15:23;83.47;;;32.20;;
8331;SDS011;4203;48.144;14.118;2022-12-18T05:17:50;86.70;;;32.40;;
8331;SDS011;4203;48.144;14.118;2022-12-18T05:20:18;83.03;;;33.40;;
8331;SDS011;4203;48.144;14.118;2022-12-18T05:22:46;86.60;;;32.23;;
8331;SDS011;4203;48.144;14.118;2022-12-18T05:25:14;87.63;;;32.77;;
8331;SDS011;4203;48.144;14.118;2022-12-18T05:27:41;84.73;;;32.17;;
8331;SDS011;4203;48.144;14.118;2022-12-18T05:30:08;79.20;;;32.43;;
8331;SDS011;4203;48.144;14.118;2022-12-18T05:32:36;92.97;;;33.00;;
8331;SDS011;4203;48.144;14.118;2022-12-18T05:35:04;89.63;;;34.83;;
8331;SDS011;4203;48.144;14.118;2022-12-18T05:37:33;85.90;;;32.97;;
8331;SDS011;4203;48.144;14.118;2022-12-18T05:40:02;89.13;;;33.40;;
8331;SDS011;4203;48.144;14.118;2022-12-18T05:42:30;92.27;;;34.87;;
8331;SDS011;4203;48.144;14.118;2022-12-18T05:44:57;86.90;;;33.83;;
8331;SDS011;4203;48.144;14.118;2022-12-18T05:47:24;101.20;;;34.50;;
8331;SDS011;4203;48.144;14.118;2022-12-18T05:49:53;87.03;;;33.13;;
8331;SDS011;4203;48.144;14.118;2022-12-18T05:52:20;83.57;;;34.33;;
8331;SDS011;4203;48.144;14.118;2022-12-18T05:54:47;83.50;;;33.00;;
8331;SDS011;4203;48.144;14.118;2022-12-18T05:57:16;95.47;;;35.73;;
8331;SDS011;4203;48.144;14.118;2022-12-18T05:59:43;89.77;;;34.33;;
8331;SDS011;4203;48.144;14.118;2022-12-18T06:02:10;92.60;;;35.53;;
8331;SDS011;4203;48.144;14.118;2022-12-18T06:04:37;109.50;;;35.90;;
8331;SDS011;4203;48.144;14.118;2022-12-18T06:07:04;98.03;;;35.23;;
8331;SDS011;4203;48.144;14.118;2022-12-18T06:09:31;101.67;;;36.00;;
8331;SDS011;4203;48.144;14.118;2022-12-18T06:11:58;111.33;;;36.80;;
8331;SDS011;4203;48.144;14.118;2022-12-18T06:14:27;109.30;;;37.60;;
8331;SDS011;4203;48.144;14.118;2022-12-18T06:16:54;112.17;;;36.93;;
8331;SDS011;4203;48.144;14.118;2022-12-18T06:19:21;85.10;;;34.67;;
8331;SDS011;4203;48.144;14.118;2022-12-18T06:21:49;102.10;;;35.93;;
8331;SDS011;4203;48.144;14.118;2022-12-18T06:24:16;95.97;;;35.97;;
8331;SDS011;4203;48.144;14.118;2022-12-18T06:26:43;94.90;;;38.27;;
8331;SDS011;4203;48.144;14.118;2022-12-18T06:29:10;105.50;;;41.23;;
8331;SDS011;4203;48.144;14.118;2022-12-18T06:31:39;108.47;;;38.50;;
8331;SDS011;4203;48.144;14.118;2022-12-18T06:34:06;95.13;;;38.17;;
8331;SDS011;4203;48.144;14.118;2022-12-18T06:36:33;103.63;;;35.87;;
8331;SDS011;4203;48.144;14.118;2022-12-18T06:39:00;93.67;;;36.97;;
8331;SDS011;4203;48.144;14.118;2022-12-18T06:41:27;92.67;;;35.83;;
8331;SDS011;4203;48.144;14.118;2022-12-18T06:43:55;111.40;;;37.80;;
8331;SDS011;4203;48.144;14.118;2022-12-18T06:46:23;103.30;;;36.00;;
8331;SDS011;4203;48.144;14.118;2022-12-18T06:48:53;102.03;;;36.60;;
8331;SDS011;4203;48.144;14.118;2022-12-18T06:51:20;109.95;;;45.45;;
8331;SDS011;4203;48.144;14.118;2022-12-18T06:53:48;103.90;;;39.20;;
8331;SDS011;4203;48.144;14.118;2022-12-18T06:56:16;105.90;;;37.80;;
8331;SDS011;4203;48.144;14.118;2022-12-18T06:58:43;94.87;;;36.87;;
8331;SDS011;4203;48.144;14.118;2022-12-18T07:01:10;103.43;;;41.60;;
8331;SDS011;4203;48.144;14.118;2022-12-18T07:03:39;94.33;;;36.73;;
8331;SDS011;4203;48.144;14.118;2022-12-18T07:06:13;80.90;;;32.80;;
8331;SDS011;4203;48.144;14.118;2022-12-18T07:08:41;86.37;;;36.37;;
8331;SDS011;4203;48.144;14.118;2022-12-18T07:11:08;101.73;;;39.70;;
8331;SDS011;4203;48.144;14.118;2022-12-18T07:13:35;107.37;;;38.77;;
8331;SDS011;4203;48.144;14.118;2022-12-18T07:16:03;88.60;;;38.80;;
8331;SDS011;4203;48.144;14.118;2022-12-18T07:18:32;96.50;;;36.60;;
8331;SDS011;4203;48.144;14.118;2022-12-18T07:21:02;96.80;;;40.53;;
8331;SDS011;4203;48.144;14.118;2022-12-18T07:23:32;98.43;;;36.13;;
8331;SDS011;4203;48.144;14.118;2022-12-18T07:26:02;83.30;;;34.37;;
8331;SDS011;4203;48.144;14.118;2022-12-18T07:28:30;90.27;;;35.87;;
8331;SDS011;4203;48.144;14.118;2022-12-18T07:30:57;87.50;;;34.33;;
8331;SDS011;4203;48.144;14.118;2022-12-18T07:33:25;137.97;;;50.53;;
8331;SDS011;4203;48.144;14.118;2022-12-18T07:35:52;101.83;;;39.77;;
8331;SDS011;4203;48.144;14.118;2022-12-18T07:38:19;89.43;;;38.40;;
8331;SDS011;4203;48.144;14.118;2022-12-18T07:40:48;101.87;;;37.67;;
8331;SDS011;4203;48.144;14.118;2022-12-18T07:43:15;104.43;;;41.90;;
8331;SDS011;4203;48.144;14.118;2022-12-18T07:45:42;114.20;;;40.63;;
8331;SDS011;4203;48.144;14.118;2022-12-18T07:48:09;108.67;;;40.03;;
8331;SDS011;4203;48.144;14.118;2022-12-18T07:50:36;108.47;;;37.90;;
8331;SDS011;4203;48.144;14.118;2022-12-18T07:53:03;106.60;;;39.20;;
8331;SDS011;4203;48.144;14.118;2022-12-18T07:55:30;101.53;;;37.37;;
8331;SDS011;4203;48.144;14.118;2022-12-18T07:58:01;97.50;;;38.17;;
8331;SDS011;4203;48.144;14.118;2022-12-18T08:00:28;90.70;;;36.90;;
8331;SDS011;4203;48.144;14.118;2022-12-18T08:02:56;102.33;;;36.17;;
8331;SDS011;4203;48.144;14.118;2022-12-18T08:05:23;82.07;;;34.37;;
8331;SDS011;4203;48.144;14.118;2022-12-18T08:07:50;87.83;;;33.43;;
8331;SDS011;4203;48.144;14.118;2022-12-18T08:10:18;133.93;;;52.20;;
8331;SDS011;4203;48.144;14.118;2022-12-18T08:12:45;90.40;;;36.07;;
8331;SDS011;4203;48.144;14.118;2022-12-18T08:15:17;90.03;;;35.57;;
8331;SDS011;4203;48.144;14.118;2022-12-18T08:17:44;91.90;;;36.73;;
8331;SDS011;4203;48.144;14.118;2022-12-18T08:20:11;79.70;;;33.23;;
8331;SDS011;4203;48.144;14.118;2022-12-18T08:22:40;77.77;;;34.07;;
8331;SDS011;4203;48.144;14.118;2022-12-18T08:25:07;83.70;;;35.17;;
8331;SDS011;4203;48.144;14.118;2022-12-18T08:27:35;81.50;;;34.50;;
8331;SDS011;4203;48.144;14.118;2022-12-18T08:30:02;69.83;;;32.37;;
8331;SDS011;4203;48.144;14.118;2022-12-18T08:32:32;75.67;;;31.80;;
8331;SDS011;4203;48.144;14.118;2022-12-18T08:34:59;73.17;;;32.63;;
8331;SDS011;4203;48.144;14.118;2022-12-18T08:37:26;76.27;;;32.40;;
8331;SDS011;4203;48.144;14.118;2022-12-18T08:39:53;66.43;;;31.33;;
8331;SDS011;4203;48.144;14.118;2022-12-18T08:42:20;73.67;;;32.17;;
8331;SDS011;4203;48.144;14.118;2022-12-18T08:45:05;67.97;;;30.70;;
8331;SDS011;4203;48.144;14.118;2022-12-18T08:47:34;64.90;;;29.83;;
8331;SDS011;4203;48.144;14.118;2022-12-18T08:50:01;72.83;;;31.50;;
8331;SDS011;4203;48.144;14.118;2022-12-18T08:52:28;70.10;;;30.23;;
8331;SDS011;4203;48.144;14.118;2022-12-18T08:54:58;63.37;;;28.60;;
8331;SDS011;4203;48.144;14.118;2022-12-18T08:57:25;58.87;;;29.27;;
8331;SDS011;4203;48.144;14.118;2022-12-18T08:59:52;63.00;;;30.80;;
8331;SDS011;4203;48.144;14.118;2022-12-18T09:02:19;60.40;;;29.70;;
8331;SDS011;4203;48.144;14.118;2022-12-18T09:04:48;57.73;;;28.27;;
8331;SDS011;4203;48.144;14.118;2022-12-18T09:07:15;54.00;;;26.77;;
8331;SDS011;4203;48.144;14.118;2022-12-18T09:09:43;60.07;;;29.10;;
8331;SDS011;4203;48.144;14.118;2022-12-18T09:12:10;62.73;;;29.30;;
8331;SDS011;4203;48.144;14.118;2022-12-18T09:14:38;47.23;;;25.90;;
8331;SDS011;4203;48.144;14.118;2022-12-18T09:17:05;53.93;;;27.20;;
8331;SDS011;4203;48.144;14.118;2022-12-18T09:19:32;54.73;;;25.93;;
8331;SDS011;4203;48.144;14.118;2022-12-18T09:22:01;58.00;;;30.00;;
8331;SDS011;4203;48.144;14.118;2022-12-18T09:24:28;48.97;;;27.07;;
8331;SDS011;4203;48.144;14.118;2022-12-18T09:26:55;53.10;;;27.17;;
8331;SDS011;4203;48.144;14.118;2022-12-18T09:29:22;53.23;;;27.37;;
8331;SDS011;4203;48.144;14.118;2022-12-18T09:31:49;98.30;;;52.77;;
8331;SDS011;4203;48.144;14.118;2022-12-18T09:34:16;51.03;;;27.57;;
8331;SDS011;4203;48.144;14.118;2022-12-18T09:36:46;78.40;;;39.00;;
8331;SDS011;4203;48.144;14.118;2022-12-18T09:39:14;50.30;;;27.27;;
8331;SDS011;4203;48.144;14.118;2022-12-18T09:41:45;59.57;;;29.47;;
8331;SDS011;4203;48.144;14.118;2022-12-18T09:44:22;49.17;;;26.87;;
8331;SDS011;4203;48.144;14.118;2022-12-18T09:46:53;51.00;;;27.80;;
8331;SDS011;4203;48.144;14.118;2022-12-18T09:49:35;46.67;;;24.83;;
8331;SDS011;4203;48.144;14.118;2022-12-18T09:52:08;48.70;;;24.50;;
8331;SDS011;4203;48.144;14.118;2022-12-18T09:54:44;40.70;;;23.63;;
8331;SDS011;4203;48.144;14.118;2022-12-18T09:57:17;41.90;;;22.40;;
8331;SDS011;4203;48.144;14.118;2022-12-18T09:59:48;37.07;;;21.93;;
8331;SDS011;4203;48.144;14.118;2022-12-18T10:02:19;39.80;;;21.93;;
8331;SDS011;4203;48.144;14.118;2022-12-18T10:04:52;43.27;;;22.07;;
8331;SDS011;4203;48.144;14.118;2022-12-18T10:07:29;37.00;;;22.47;;
8331;SDS011;4203;48.144;14.118;2022-12-18T10:10:15;39.93;;;21.97;;
8331;SDS011;4203;48.144;14.118;2022-12-18T10:12:51;43.20;;;21.77;;
8331;SDS011;4203;48.144;14.118;2022-12-18T10:15:27;37.33;;;21.70;;
8331;SDS011;4203;48.144;14.118;2022-12-18T10:18:02;39.53;;;21.57;;
8331;SDS011;4203;48.144;14.118;2022-12-18T10:20:38;44.17;;;21.53;;
8331;SDS011;4203;48.144;14.118;2022-12-18T10:23:12;37.10;;;21.80;;
8331;SDS011;4203;48.144;14.118;2022-12-18T10:25:47;39.53;;;21.27;;
8331;SDS011;4203;48.144;14.118;2022-12-18T10:28:20;40.97;;;22.33;;
8331;SDS011;4203;48.144;14.118;2022-12-18T10:30:48;37.13;;;21.10;;
8331;SDS011;4203;48.144;14.118;2022-12-18T10:33:16;36.07;;;20.47;;
8331;SDS011;4203;48.144;14.118;2022-12-18T10:35:45;37.23;;;20.30;;
8331;SDS011;4203;48.144;14.118;2022-12-18T10:38:21;36.60;;;19.10;;
8331;SDS011;4203;48.144;14.118;2022-12-18T10:40:52;33.97;;;20.70;;
8331;SDS011;4203;48.144;14.118;2022-12-18T10:43:22;35.40;;;21.20;;
8331;SDS011;4203;48.144;14.118;2022-12-18T10:45:59;46.43;;;25.23;;
8331;SDS011;4203;48.144;14.118;2022-12-18T10:48:28;49.10;;;28.43;;
8331;SDS011;4203;48.144;14.118;2022-12-18T10:50:58;44.20;;;26.50;;
8331;SDS011;4203;48.144;14.118;2022-12-18T10:53:27;40.83;;;22.90;;
8331;SDS011;4203;48.144;14.118;2022-12-18T10:55:57;57.33;;;28.40;;
8331;SDS011;4203;48.144;14.118;2022-12-18T10:58:26;80.77;;;36.70;;
8331;SDS011;4203;48.144;14.118;2022-12-18T11:01:05;36.07;;;21.13;;
8331;SDS011;4203;48.144;14.118;2022-12-18T11:03:35;45.47;;;26.17;;
8331;SDS011;4203;48.144;14.118;2022-12-18T11:06:08;32.70;;;20.40;;
8331;SDS011;4203;48.144;14.118;2022-12-18T11:08:37;33.30;;;20.47;;
8331;SDS011;4203;48.144;14.118;2022-12-18T11:11:15;37.00;;;21.77;;
8331;SDS011;4203;48.144;14.118;2022-12-18T11:13:49;38.53;;;23.23;;
8331;SDS011;4203;48.144;14.118;2022-12-18T11:16:36;52.37;;;28.63;;
8331;SDS011;4203;48.144;14.118;2022-12-18T11:19:19;51.97;;;28.67;;
8331;SDS011;4203;48.144;14.118;2022-12-18T11:21:51;35.40;;;19.53;;
8331;SDS011;4203;48.144;14.118;2022-12-18T11:24:20;33.27;;;20.87;;
8331;SDS011;4203;48.144;14.118;2022-12-18T11:26:54;39.47;;;24.13;;
8331;SDS011;4203;48.144;14.118;2022-12-18T11:29:23;45.67;;;26.97;;
8331;SDS011;4203;48.144;14.118;2022-12-18T11:32:04;35.23;;;20.83;;
8331;SDS011;4203;48.144;14.118;2022-12-18T11:34:57;32.07;;;18.80;;
8331;SDS011;4203;48.144;14.118;2022-12-18T11:37:27;26.93;;;16.60;;
8331;SDS011;4203;48.144;14.118;2022-12-18T11:39:56;23.77;;;16.37;;
8331;SDS011;4203;48.144;14.118;2022-12-18T11:42:30;26.17;;;16.80;;
8331;SDS011;4203;48.144;14.118;2022-12-18T11:47:52;23.47;;;15.57;;
8331;SDS011;4203;48.144;14.118;2022-12-18T11:50:24;23.50;;;15.10;;
8331;SDS011;4203;48.144;14.118;2022-12-18T11:52:54;21.97;;;15.27;;
8331;SDS011;4203;48.144;14.118;2022-12-18T11:55:24;21.83;;;16.13;;
8331;SDS011;4203;48.144;14.118;2022-12-18T11:58:01;21.00;;;15.17;;
8331;SDS011;4203;48.144;14.118;2022-12-18T12:00:34;20.77;;;15.33;;
8331;SDS011;4203;48.144;14.118;2022-12-18T12:03:23;24.97;;;16.27;;
8331;SDS011;4203;48.144;14.118;2022-12-18T12:06:03;21.77;;;16.27;;
8331;SDS011;4203;48.144;14.118;2022-12-18T12:08:40;23.10;;;16.40;;
8331;SDS011;4203;48.144;14.118;2022-12-18T12:11:21;24.52;;;17.02;;
8331;SDS011;4203;48.144;14.118;2022-12-18T12:14:00;22.50;;;15.38;;
8331;SDS011;4203;48.144;14.118;2022-12-18T12:16:43;23.80;;;17.67;;
8331;SDS011;4203;48.144;14.118;2022-12-18T12:19:22;32.22;;;21.35;;
8331;SDS011;4203;48.144;14.118;2022-12-18T12:22:00;21.45;;;16.23;;
8331;SDS011;4203;48.144;14.118;2022-12-18T12:24:37;38.63;;;21.80;;
8331;SDS011;4203;48.144;14.118;2022-12-18T12:27:14;62.35;;;34.13;;
8331;SDS011;4203;48.144;14.118;2022-12-18T12:29:54;55.63;;;33.03;;
8331;SDS011;4203;48.144;14.118;2022-12-18T12:32:33;19.88;;;16.58;;
8331;SDS011;4203;48.144;14.118;2022-12-18T12:35:13;17.77;;;14.80;;
8331;SDS011;4203;48.144;14.118;2022-12-18T12:37:48;17.83;;;14.73;;
8331;SDS011;4203;48.144;14.118;2022-12-18T12:40:23;21.83;;;17.05;;
8331;SDS011;4203;48.144;14.118;2022-12-18T12:42:54;20.35;;;16.15;;
8331;SDS011;4203;48.144;14.118;2022-12-18T12:45:41;24.02;;;19.30;;
8331;SDS011;4203;48.144;14.118;2022-12-18T12:48:15;22.97;;;17.10;;
8331;SDS011;4203;48.144;14.118;2022-12-18T12:50:47;26.73;;;19.10;;
8331;SDS011;4203;48.144;14.118;2022-12-18T12:53:19;30.17;;;21.20;;
8331;SDS011;4203;48.144;14.118;2022-12-18T12:55:50;26.83;;;20.00;;
8331;SDS011;4203;48.144;14.118;2022-12-18T12:58:21;30.33;;;20.20;;
8331;SDS011;4203;48.144;14.118;2022-12-18T13:01:00;23.03;;;15.73;;
8331;SDS011;4203;48.144;14.118;2022-12-18T13:03:43;25.47;;;16.40;;
8331;SDS011;4203;48.144;14.118;2022-12-18T13:06:19;23.30;;;15.40;;
8331;SDS011;4203;48.144;14.118;2022-12-18T13:08:57;24.07;;;16.90;;
8331;SDS011;4203;48.144;14.118;2022-12-18T13:11:35;25.53;;;17.57;;
8331;SDS011;4203;48.144;14.118;2022-12-18T13:14:23;32.53;;;20.93;;
8331;SDS011;4203;48.144;14.118;2022-12-18T13:20:02;37.90;;;21.80;;
8331;SDS011;4203;48.144;14.118;2022-12-18T13:22:34;38.03;;;22.73;;
8331;SDS011;4203;48.144;14.118;2022-12-18T13:25:02;27.93;;;17.97;;
8331;SDS011;4203;48.144;14.118;2022-12-18T13:27:57;34.57;;;20.90;;
8331;SDS011;4203;48.144;14.118;2022-12-18T13:30:45;33.00;;;19.70;;
8331;SDS011;4203;48.144;14.118;2022-12-18T13:36:29;67.37;;;31.70;;
8331;SDS011;4203;48.144;14.118;2022-12-18T13:45:36;39.67;;;20.60;;
8331;SDS011;4203;48.144;14.118;2022-12-18T13:48:12;32.17;;;19.20;;
8331;SDS011;4203;48.144;14.118;2022-12-18T13:50:50;46.03;;;22.13;;
8331;SDS011;4203;48.144;14.118;2022-12-18T13:53:22;37.77;;;20.07;;
8331;SDS011;4203;48.144;14.118;2022-12-18T13:55:52;84.13;;;33.83;;
8331;SDS011;4203;48.144;14.118;2022-12-18T13:58:20;33.17;;;19.97;;
8331;SDS011;4203;48.144;14.118;2022-12-18T14:00:47;30.70;;;19.77;;
8331;SDS011;4203;48.144;14.118;2022-12-18T14:03:18;37.53;;;20.57;;
8331;SDS011;4203;48.144;14.118;2022-12-18T14:05:52;34.30;;;21.73;;
8331;SDS011;4203;48.144;14.118;2022-12-18T14:08:25;36.73;;;22.43;;
8331;SDS011;4203;48.144;14.118;2022-12-18T14:10:58;47.63;;;26.40;;
8331;SDS011;4203;48.144;14.118;2022-12-18T14:13:26;37.77;;;21.93;;
8331;SDS011;4203;48.144;14.118;2022-12-18T14:15:56;38.17;;;21.53;;
8331;SDS011;4203;48.144;14.118;2022-12-18T14:18:33;34.57;;;20.50;;
8331;SDS011;4203;48.144;14.118;2022-12-18T14:21:13;35.13;;;20.47;;
8331;SDS011;4203;48.144;14.118;2022-12-18T14:23:47;38.20;;;21.57;;
8331;SDS011;4203;48.144;14.118;2022-12-18T14:26:22;33.37;;;19.23;;
8331;SDS011;4203;48.144;14.118;2022-12-18T14:28:52;34.83;;;19.93;;
8331;SDS011;4203;48.144;14.118;2022-12-18T14:31:21;31.50;;;19.67;;
8331;SDS011;4203;48.144;14.118;2022-12-18T14:33:50;36.10;;;20.67;;
8331;SDS011;4203;48.144;14.118;2022-12-18T14:36:20;44.60;;;22.93;;
8331;SDS011;4203;48.144;14.118;2022-12-18T14:38:50;38.27;;;21.60;;
8331;SDS011;4203;48.144;14.118;2022-12-18T14:41:19;36.87;;;22.10;;
8331;SDS011;4203;48.144;14.118;2022-12-18T14:43:47;45.63;;;24.57;;
8331;SDS011;4203;48.144;14.118;2022-12-18T14:46:26;53.97;;;29.13;;
8331;SDS011;4203;48.144;14.118;2022-12-18T14:48:56;54.80;;;28.27;;
8331;SDS011;4203;48.144;14.118;2022-12-18T14:51:28;38.13;;;21.73;;
8331;SDS011;4203;48.144;14.118;2022-12-18T14:53:58;64.90;;;30.97;;
8331;SDS011;4203;48.144;14.118;2022-12-18T14:56:27;57.87;;;27.50;;
8331;SDS011;4203;48.144;14.118;2022-12-18T14:58:56;59.90;;;28.70;;
8331;SDS011;4203;48.144;14.118;2022-12-18T15:01:26;78.57;;;36.70;;
8331;SDS011;4203;48.144;14.118;2022-12-18T15:03:55;66.30;;;31.73;;
8331;SDS011;4203;48.144;14.118;2022-12-18T15:06:26;65.37;;;32.00;;
8331;SDS011;4203;48.144;14.118;2022-12-18T15:08:57;69.00;;;31.80;;